Time;durP1;ratioP1;P1;durP2;ratioP2;P2;SDS_P1;SDS_P2;PMS_P1;PMS_P2;Temp;Humidity;BMP_temperature;BMP_pressure;BME280_temperature;BME280_humidity;BME280_pressure;Samples;Min_cycle;Max_cycle;Signal;HPM_P1;HPM_P2
2021/09/13 00:01:25;;;;;;;0.77;0.77;;;21.80;77.40;;;;;;5136320;27;20023;-45
2021/09/13 00:03:51;;;;;;;0.47;0.47;;;21.80;77.40;;;;;;5135419;27;20051;-52
2021/09/13 00:06:18;;;;;;;0.73;0.60;;;21.80;77.40;;;;;;5136409;27;20031;-45
2021/09/13 00:08:44;;;;;;;0.57;0.57;;;21.90;77.40;;;;;;5136626;27;20115;-47
2021/09/13 00:11:09;;;;;;;0.43;0.43;;;21.80;77.40;;;;;;5136729;27;20046;-55
2021/09/13 00:13:35;;;;;;;0.50;0.50;;;21.80;77.40;;;;;;5136177;27;20122;-54
2021/09/13 00:16:02;;;;;;;0.50;0.50;;;21.80;77.40;;;;;;5136206;27;20047;-56
2021/09/13 00:18:28;;;;;;;0.43;0.43;;;21.80;77.40;;;;;;5136354;27;20120;-54
2021/09/13 00:20:53;;;;;;;0.50;0.50;;;21.80;77.40;;;;;;5136344;27;20390;-55
2021/09/13 00:23:20;;;;;;;0.68;0.60;;;21.80;77.40;;;;;;5135974;27;20061;-54
2021/09/13 00:25:46;;;;;;;0.73;0.38;;;21.80;77.40;;;;;;5136364;27;20043;-53
2021/09/13 00:28:12;;;;;;;0.98;0.57;;;21.80;77.40;;;;;;5135680;27;20057;-54
2021/09/13 00:30:38;;;;;;;0.40;0.40;;;21.80;78.00;;;;;;5135658;27;20051;-55
2021/09/13 00:33:04;;;;;;;0.43;0.43;;;21.80;77.40;;;;;;5136033;27;20103;-55
2021/09/13 00:35:29;;;;;;;0.50;0.50;;;21.80;77.40;;;;;;5116470;27;20100;-55
2021/09/13 00:37:55;;;;;;;0.68;0.57;;;21.80;77.40;;;;;;5136186;27;20491;-55
2021/09/13 00:40:22;;;;;;;0.60;0.60;;;21.80;77.40;;;;;;5136281;27;20031;-52
2021/09/13 00:42:48;;;;;;;0.55;0.43;;;21.80;77.40;;;;;;5136175;27;20054;-55
2021/09/13 00:45:14;;;;;;;0.40;0.40;;;21.80;77.40;;;;;;5135491;27;20387;-54
2021/09/13 00:47:39;;;;;;;1.25;0.60;;;21.80;77.40;;;;;;5135180;27;20062;-52
2021/09/13 00:50:06;;;;;;;0.63;0.50;;;21.80;77.40;;;;;;5135968;27;20043;-50
2021/09/13 00:52:32;;;;;;;0.52;0.52;;;21.80;77.40;;;;;;5135504;27;20039;-52
2021/09/13 00:55:00;;;;;;;0.73;0.55;;;21.80;77.40;;;;;;5135756;27;20050;-56
2021/09/13 00:57:27;;;;;;;0.50;0.40;;;21.80;77.40;;;;;;5135306;27;20035;-49
2021/09/13 00:59:53;;;;;;;0.57;0.50;;;21.80;77.40;;;;;;5133314;27;20071;-49
2021/09/13 01:02:19;;;;;;;0.57;0.50;;;21.70;77.30;;;;;;5135743;27;20035;-53
2021/09/13 01:04:45;;;;;;;0.50;0.50;;;21.80;77.40;;;;;;5135249;27;20321;-49
2021/09/13 01:07:11;;;;;;;0.50;0.50;;;21.80;77.40;;;;;;5135413;27;20027;-49
2021/09/13 01:09:37;;;;;;;0.50;0.43;;;21.80;77.40;;;;;;5134828;27;20039;-54
2021/09/13 01:12:04;;;;;;;0.60;0.40;;;21.80;77.40;;;;;;5135417;27;20035;-53
2021/09/13 01:14:39;;;;;;;0.65;0.60;;;21.80;77.40;;;;;;5134599;27;20066;-48
2021/09/13 01:17:06;;;;;;;0.40;0.40;;;21.80;77.40;;;;;;5133045;27;20043;-55
2021/09/13 01:19:32;;;;;;;0.65;0.50;;;21.70;77.30;;;;;;5134915;27;20035;-53
2021/09/13 01:22:03;;;;;;;0.50;0.50;;;21.80;77.40;;;;;;5134679;27;20054;-47
2021/09/13 01:24:30;;;;;;;1.23;0.50;;;21.80;77.40;;;;;;5134786;27;20035;-54
2021/09/13 01:27:05;;;;;;;0.90;0.60;;;21.70;77.30;;;;;;5134463;27;20507;-46
2021/09/13 01:29:32;;;;;;;0.50;0.50;;;21.90;77.40;;;;;;5133433;27;20039;-48
2021/09/13 01:31:58;;;;;;;0.40;0.40;;;21.80;77.40;;;;;;5134240;27;20031;-54
2021/09/13 01:34:24;;;;;;;0.40;0.40;;;21.80;78.00;;;;;;5135211;27;20043;-51
2021/09/13 01:36:50;;;;;;;0.40;0.40;;;21.70;77.30;;;;;;5134657;27;20031;-54
2021/09/13 01:39:16;;;;;;;0.50;0.50;;;21.70;77.30;;;;;;5134819;27;20047;-54
2021/09/13 01:41:43;;;;;;;0.52;0.40;;;21.80;77.40;;;;;;5134506;27;20037;-55
2021/09/13 01:44:13;;;;;;;0.52;0.52;;;21.70;77.30;;;;;;5134479;27;20038;-53
2021/09/13 01:46:40;;;;;;;0.40;0.40;;;21.70;77.30;;;;;;5134329;27;20047;-53
2021/09/13 01:49:06;;;;;;;0.47;0.43;;;21.80;77.40;;;;;;5134757;27;20051;-53
2021/09/13 01:51:32;;;;;;;0.55;0.52;;;21.80;77.40;;;;;;5134551;27;20023;-55
2021/09/13 01:53:58;;;;;;;0.32;0.30;;;21.70;77.30;;;;;;5134643;27;20483;-55
2021/09/13 01:56:24;;;;;;;0.52;0.50;;;21.80;77.40;;;;;;5133661;27;20092;-53
2021/09/13 01:58:50;;;;;;;0.47;0.40;;;21.80;77.40;;;;;;5134115;27;20068;-48
2021/09/13 02:01:15;;;;;;;0.40;0.40;;;21.80;77.40;;;;;;5134219;27;20043;-48
2021/09/13 02:03:41;;;;;;;0.60;0.50;;;21.80;77.40;;;;;;5133626;27;20035;-54
2021/09/13 02:06:07;;;;;;;0.50;0.30;;;21.70;77.30;;;;;;5134136;27;20047;-55
2021/09/13 02:08:33;;;;;;;0.40;0.40;;;21.80;77.40;;;;;;5134147;27;20054;-52
2021/09/13 02:10:58;;;;;;;0.50;0.50;;;21.70;77.30;;;;;;5133811;27;20039;-49
2021/09/13 02:13:24;;;;;;;0.77;0.52;;;21.70;77.30;;;;;;5133759;27;20364;-54
2021/09/13 02:15:50;;;;;;;0.50;0.50;;;21.70;77.30;;;;;;5134197;27;20039;-53
2021/09/13 02:18:15;;;;;;;1.17;0.50;;;21.70;77.30;;;;;;5132818;27;20043;-50
2021/09/13 02:20:41;;;;;;;0.57;0.55;;;21.80;77.40;;;;;;5132929;27;20126;-55
2021/09/13 02:23:06;;;;;;;0.85;0.40;;;21.70;77.30;;;;;;5133825;27;20039;-54
2021/09/13 02:25:32;;;;;;;0.47;0.47;;;21.70;77.30;;;;;;5133650;27;20490;-49
2021/09/13 02:27:58;;;;;;;1.45;0.50;;;21.70;77.30;;;;;;5133429;27;20079;-55
2021/09/13 02:30:24;;;;;;;0.65;0.50;;;21.70;77.30;;;;;;5133247;27;20031;-53
2021/09/13 02:32:49;;;;;;;0.30;0.30;;;21.70;77.30;;;;;;5133516;27;20043;-54
2021/09/13 02:35:15;;;;;;;0.40;0.40;;;21.70;77.30;;;;;;5133270;27;20045;-55
2021/09/13 02:37:41;;;;;;;0.43;0.43;;;21.70;77.30;;;;;;5130821;27;20493;-49
2021/09/13 02:40:07;;;;;;;0.73;0.40;;;21.70;77.30;;;;;;5133142;27;20035;-52
2021/09/13 02:42:34;;;;;;;1.20;0.40;;;21.70;77.30;;;;;;5132849;27;20510;-54
2021/09/13 02:45:00;;;;;;;0.50;0.50;;;21.70;77.30;;;;;;5132849;27;20478;-55
2021/09/13 02:47:26;;;;;;;0.40;0.40;;;21.70;77.20;;;;;;5133435;27;20039;-51
2021/09/13 02:49:51;;;;;;;1.63;0.50;;;21.70;77.30;;;;;;5133170;27;20088;-54
2021/09/13 02:52:17;;;;;;;0.30;0.30;;;21.70;77.30;;;;;;5113935;27;20509;-43
2021/09/13 02:54:43;;;;;;;0.43;0.38;;;21.70;77.30;;;;;;5133690;27;20118;-49
2021/09/13 02:57:08;;;;;;;0.52;0.30;;;21.70;77.30;;;;;;5133267;27;20037;-53
2021/09/13 02:59:34;;;;;;;0.50;0.50;;;21.70;77.20;;;;;;5133016;27;20062;-53
2021/09/13 03:02:00;;;;;;;0.50;0.50;;;21.70;77.30;;;;;;5132938;27;20035;-53
2021/09/13 03:04:25;;;;;;;0.90;0.50;;;21.70;77.30;;;;;;5133208;27;20080;-51
2021/09/13 03:06:51;;;;;;;1.05;0.75;;;21.70;77.30;;;;;;5132460;27;20049;-49
2021/09/13 03:09:17;;;;;;;0.52;0.50;;;21.70;77.30;;;;;;5133439;27;20042;-55
2021/09/13 03:11:43;;;;;;;0.57;0.47;;;21.70;77.30;;;;;;5133258;27;20047;-55
2021/09/13 03:14:09;;;;;;;0.50;0.40;;;21.70;77.30;;;;;;5133108;27;20045;-53
2021/09/13 03:16:35;;;;;;;0.40;0.30;;;21.70;77.30;;;;;;5132693;27;20031;-56
2021/09/13 03:19:01;;;;;;;0.50;0.50;;;21.70;77.30;;;;;;5130427;27;20050;-54
2021/09/13 03:21:27;;;;;;;0.43;0.40;;;21.70;77.20;;;;;;5132098;27;20039;-51
2021/09/13 03:23:52;;;;;;;0.82;0.52;;;21.70;77.30;;;;;;5132878;27;20031;-46
2021/09/13 03:26:18;;;;;;;1.08;0.47;;;21.70;77.30;;;;;;5132717;27;20039;-51
2021/09/13 03:28:44;;;;;;;0.40;0.40;;;21.70;77.30;;;;;;5132588;27;20441;-54
2021/09/13 03:31:09;;;;;;;0.20;0.20;;;21.70;77.20;;;;;;5131537;27;20043;-50
2021/09/13 03:33:35;;;;;;;1.70;0.73;;;21.70;77.30;;;;;;5132787;27;20470;-46
2021/09/13 03:36:01;;;;;;;0.50;0.50;;;21.70;77.30;;;;;;5130123;27;20039;-54
2021/09/13 03:38:27;;;;;;;0.50;0.50;;;21.70;77.20;;;;;;5131776;27;20384;-47
2021/09/13 03:40:52;;;;;;;0.40;0.40;;;21.70;77.30;;;;;;5132484;27;20035;-53
2021/09/13 03:43:18;;;;;;;0.63;0.43;;;21.70;77.30;;;;;;5132485;27;20066;-48
2021/09/13 03:45:44;;;;;;;0.40;0.40;;;21.70;77.20;;;;;;5132595;28;20031;-53
2021/09/13 03:48:09;;;;;;;0.40;0.40;;;21.70;77.30;;;;;;5131744;28;20047;-54
2021/09/13 03:50:35;;;;;;;0.55;0.50;;;21.70;77.20;;;;;;5114241;28;20475;-54
2021/09/13 03:53:01;;;;;;;0.45;0.45;;;21.70;77.20;;;;;;5128826;28;20050;-50
2021/09/13 03:55:26;;;;;;;0.43;0.43;;;21.70;77.20;;;;;;5132750;28;20122;-54
2021/09/13 03:57:52;;;;;;;0.88;0.40;;;21.70;77.20;;;;;;5132504;28;20115;-54
2021/09/13 04:00:18;;;;;;;0.40;0.40;;;21.70;77.20;;;;;;5131643;28;20126;-50
2021/09/13 04:02:46;;;;;;;1.52;0.40;;;21.70;77.20;;;;;;5132283;28;20116;-54
2021/09/13 04:05:16;;;;;;;0.40;0.40;;;21.70;77.20;;;;;;5132012;28;20043;-52
2021/09/13 04:12:47;;;;;;;0.40;0.40;;;21.70;77.20;;;;;;5132286;28;20130;-53
2021/09/13 04:15:14;;;;;;;0.50;0.50;;;21.60;77.20;;;;;;5132220;28;20132;-45
2021/09/13 04:17:40;;;;;;;0.50;0.50;;;21.70;77.20;;;;;;5131900;28;20118;-51
2021/09/13 04:20:06;;;;;;;0.95;0.57;;;21.70;77.20;;;;;;5131735;28;20551;-47
2021/09/13 04:22:32;;;;;;;0.80;0.60;;;21.70;77.20;;;;;;5132103;28;20083;-53
2021/09/13 04:24:58;;;;;;;1.17;0.50;;;21.70;77.20;;;;;;5131908;28;20075;-55
2021/09/13 04:27:24;;;;;;;0.25;0.20;;;21.70;77.20;;;;;;5131775;28;20100;-51
2021/09/13 04:29:50;;;;;;;0.60;0.60;;;21.70;77.20;;;;;;5131901;28;20110;-53
2021/09/13 04:32:15;;;;;;;0.65;0.35;;;21.70;77.20;;;;;;5132005;28;20429;-56
2021/09/13 04:34:41;;;;;;;0.63;0.60;;;21.70;77.20;;;;;;5129134;28;20078;-50
2021/09/13 04:37:07;;;;;;;0.98;0.57;;;21.70;77.20;;;;;;5132164;28;20104;-50
2021/09/13 04:39:32;;;;;;;0.47;0.47;;;21.70;77.20;;;;;;5131736;28;20561;-55
2021/09/13 04:41:59;;;;;;;0.40;0.40;;;21.60;77.10;;;;;;5131651;27;20513;-53
2021/09/13 04:44:24;;;;;;;0.77;0.50;;;21.60;77.10;;;;;;5135836;27;20043;-53
2021/09/13 04:46:50;;;;;;;0.52;0.50;;;21.60;77.20;;;;;;5135996;27;20046;-54
2021/09/13 04:49:16;;;;;;;0.30;0.30;;;21.60;77.10;;;;;;5117914;27;20058;-56
2021/09/13 04:51:41;;;;;;;0.50;0.50;;;21.60;77.20;;;;;;5136061;27;20050;-53
2021/09/13 04:54:07;;;;;;;0.75;0.50;;;21.70;77.20;;;;;;5136382;27;20087;-55
2021/09/13 04:56:33;;;;;;;0.40;0.40;;;21.60;77.20;;;;;;5133763;27;20461;-54
2021/09/13 04:58:59;;;;;;;0.38;0.38;;;21.60;77.20;;;;;;5134530;27;20054;-50
2021/09/13 05:01:25;;;;;;;0.47;0.30;;;21.60;77.20;;;;;;5134484;27;20035;-54
2021/09/13 05:03:50;;;;;;;0.68;0.65;;;21.60;77.10;;;;;;5134748;27;20102;-55
2021/09/13 05:06:16;;;;;;;0.47;0.47;;;21.60;77.10;;;;;;5135392;27;20399;-54
2021/09/13 05:08:42;;;;;;;0.65;0.50;;;21.60;77.20;;;;;;5136305;27;20031;-46
2021/09/13 05:11:07;;;;;;;0.98;0.50;;;21.60;77.10;;;;;;5135176;27;20475;-48
2021/09/13 05:13:33;;;;;;;1.00;0.60;;;21.60;77.20;;;;;;5135603;27;20046;-54
2021/09/13 05:16:02;;;;;;;0.43;0.43;;;21.60;77.80;;;;;;5134991;27;20035;-46
2021/09/13 05:18:27;;;;;;;0.68;0.35;;;21.60;77.10;;;;;;5134812;27;20107;-51
2021/09/13 05:20:53;;;;;;;0.77;0.52;;;21.60;77.10;;;;;;5135104;27;20055;-54
2021/09/13 05:23:18;;;;;;;0.55;0.50;;;21.60;77.10;;;;;;5134944;27;20043;-55
2021/09/13 05:25:44;;;;;;;0.47;0.47;;;21.60;77.10;;;;;;5135254;27;20033;-55
2021/09/13 05:28:10;;;;;;;0.60;0.47;;;21.60;77.10;;;;;;5134065;27;20150;-47
2021/09/13 05:30:36;;;;;;;0.30;0.30;;;21.60;77.20;;;;;;5134825;27;20035;-50
2021/09/13 05:33:02;;;;;;;0.57;0.47;;;21.60;77.10;;;;;;5115893;27;20054;-52
2021/09/13 05:35:27;;;;;;;0.40;0.40;;;21.60;77.10;;;;;;5135082;27;20035;-49
2021/09/13 05:37:53;;;;;;;0.60;0.47;;;21.60;77.20;;;;;;5134763;27;20468;-45
2021/09/13 05:40:19;;;;;;;0.30;0.30;;;21.60;77.10;;;;;;5134965;27;20088;-52
2021/09/13 05:42:44;;;;;;;0.50;0.35;;;21.60;77.10;;;;;;5133644;27;20080;-48
2021/09/13 05:45:11;;;;;;;0.30;0.30;;;21.60;77.10;;;;;;5134306;27;20035;-42
2021/09/13 05:47:36;;;;;;;0.50;0.30;;;21.60;77.10;;;;;;5134465;27;20038;-54
2021/09/13 05:50:03;;;;;;;0.40;0.40;;;21.60;77.10;;;;;;5134446;27;20042;-48
2021/09/13 05:52:29;;;;;;;0.40;0.40;;;21.60;77.10;;;;;;5115929;27;20047;-51
2021/09/13 05:54:54;;;;;;;0.75;0.50;;;21.60;77.10;;;;;;5132668;27;20039;-53
2021/09/13 05:57:20;;;;;;;0.75;0.50;;;21.60;77.10;;;;;;5134405;27;20039;-48
2021/09/13 05:59:46;;;;;;;0.57;0.50;;;21.60;77.10;;;;;;5114302;27;20118;-55
2021/09/13 06:02:13;;;;;;;0.65;0.47;;;21.60;77.10;;;;;;5134049;27;20035;-55
2021/09/13 06:04:40;;;;;;;0.40;0.40;;;21.60;77.10;;;;;;5133693;27;20035;-44
2021/09/13 06:07:06;;;;;;;0.40;0.40;;;21.60;77.10;;;;;;5134298;27;20760;-50
2021/09/13 06:09:32;;;;;;;0.32;0.32;;;21.60;77.20;;;;;;5134055;27;20035;-49
2021/09/13 06:11:57;;;;;;;0.32;0.30;;;21.60;77.10;;;;;;5134702;27;20096;-43
2021/09/13 06:14:23;;;;;;;0.90;0.50;;;21.60;77.10;;;;;;5115507;27;20051;-53
2021/09/13 06:16:49;;;;;;;0.35;0.35;;;21.60;77.10;;;;;;5126154;27;20027;-51
2021/09/13 06:19:14;;;;;;;0.32;0.30;;;21.60;77.10;;;;;;5115575;27;20106;-53
2021/09/13 06:21:40;;;;;;;0.82;0.50;;;21.60;77.20;;;;;;5118681;27;20375;-43
2021/09/13 06:24:06;;;;;;;0.50;0.40;;;21.60;77.10;;;;;;5132924;27;20046;-54
2021/09/13 06:26:31;;;;;;;0.63;0.57;;;21.60;77.10;;;;;;5114994;27;20119;-50
2021/09/13 06:28:57;;;;;;;0.50;0.50;;;21.60;77.10;;;;;;5133775;27;20407;-53
2021/09/13 06:31:23;;;;;;;1.02;0.45;;;21.60;77.20;;;;;;5132331;27;20039;-54
2021/09/13 06:33:49;;;;;;;0.30;0.30;;;21.60;77.20;;;;;;5134366;27;20057;-52
2021/09/13 06:36:14;;;;;;;1.00;0.50;;;21.60;77.10;;;;;;5133282;27;20031;-50
2021/09/13 06:38:42;;;;;;;0.70;0.43;;;21.60;77.20;;;;;;5133141;27;20567;-55
2021/09/13 06:41:09;;;;;;;0.50;0.50;;;21.60;77.20;;;;;;5133533;27;20047;-45
2021/09/13 06:43:34;;;;;;;0.95;0.40;;;21.60;77.10;;;;;;5133886;27;20031;-55
2021/09/13 06:48:40;;;;;;;0.30;0.30;;;21.60;77.20;;;;;;5133114;27;20513;-48
2021/09/13 06:51:06;;;;;;;1.13;0.52;;;21.60;77.20;;;;;;5132975;27;20551;-47
2021/09/13 06:53:32;;;;;;;0.30;0.30;;;21.60;77.20;;;;;;5132694;27;20039;-54
2021/09/13 06:55:57;;;;;;;0.35;0.25;;;21.60;77.20;;;;;;5133558;27;20053;-46
2021/09/13 06:58:23;;;;;;;0.60;0.60;;;21.50;77.10;;;;;;5131901;27;20031;-55
2021/09/13 07:00:49;;;;;;;0.30;0.30;;;21.60;77.20;;;;;;5131947;27;20504;-53
2021/09/13 07:03:16;;;;;;;0.65;0.60;;;21.60;77.20;;;;;;5133769;27;20043;-54
2021/09/13 07:05:42;;;;;;;0.50;0.50;;;21.50;77.10;;;;;;5132546;27;20047;-51
2021/09/13 07:08:08;;;;;;;1.85;0.93;;;21.60;77.20;;;;;;5131276;27;20376;-54
2021/09/13 07:10:34;;;;;;;0.75;0.60;;;21.60;77.20;;;;;;5133189;27;20038;-53
2021/09/13 07:13:00;;;;;;;0.30;0.30;;;21.50;77.10;;;;;;5133297;27;20043;-53
2021/09/13 07:15:25;;;;;;;0.50;0.30;;;21.60;77.20;;;;;;5132495;27;20509;-54
2021/09/13 07:17:51;;;;;;;0.30;0.30;;;21.60;77.20;;;;;;5132943;27;20047;-54
2021/09/13 07:20:17;;;;;;;0.50;0.50;;;21.50;77.20;;;;;;5133014;27;20414;-55
2021/09/13 07:22:43;;;;;;;1.05;0.60;;;21.50;77.20;;;;;;5133192;27;20054;-51
2021/09/13 07:25:09;;;;;;;0.40;0.40;;;21.60;77.20;;;;;;5133864;27;20054;-53
2021/09/13 07:27:35;;;;;;;0.52;0.40;;;21.50;77.20;;;;;;5131966;27;20486;-49
2021/09/13 07:30:02;;;;;;;0.30;0.30;;;21.50;77.20;;;;;;5132754;27;20039;-51
2021/09/13 07:32:28;;;;;;;0.40;0.40;;;21.50;77.20;;;;;;5118381;27;20501;-52
2021/09/13 07:34:54;;;;;;;0.30;0.30;;;21.50;77.20;;;;;;5128041;27;20122;-51
2021/09/13 07:37:20;;;;;;;0.40;0.40;;;21.50;77.20;;;;;;5112873;28;20656;-53
2021/09/13 07:39:45;;;;;;;0.30;0.30;;;21.50;77.20;;;;;;5113520;28;20042;-43
2021/09/13 07:42:11;;;;;;;0.50;0.50;;;21.50;77.20;;;;;;5132273;27;20035;-47
2021/09/13 07:44:37;;;;;;;0.45;0.40;;;21.50;77.20;;;;;;5132405;27;20113;-54
2021/09/13 07:47:03;;;;;;;0.30;0.30;;;21.50;77.20;;;;;;5131455;28;20120;-50
2021/09/13 07:49:29;;;;;;;0.57;0.45;;;21.50;77.20;;;;;;5132247;28;20134;-50
2021/09/13 07:51:54;;;;;;;1.23;0.55;;;21.50;77.30;;;;;;5132413;28;20468;-48
2021/09/13 07:54:20;;;;;;;0.38;0.38;;;21.50;77.20;;;;;;5130161;28;20055;-54
2021/09/13 07:56:46;;;;;;;0.28;0.28;;;21.50;77.20;;;;;;5132362;28;20464;-51
2021/09/13 07:59:12;;;;;;;0.30;0.30;;;21.50;77.20;;;;;;5131983;28;20039;-53
2021/09/13 08:01:37;;;;;;;0.47;0.45;;;21.50;77.20;;;;;;5131081;28;20119;-54
2021/09/13 08:04:04;;;;;;;1.55;0.60;;;21.50;77.20;;;;;;5131623;28;20043;-52
2021/09/13 08:06:29;;;;;;;0.30;0.28;;;21.50;77.20;;;;;;5132113;28;20348;-53
2021/09/13 08:08:55;;;;;;;0.40;0.40;;;21.50;77.20;;;;;;5130963;28;20126;-52
2021/09/13 08:11:21;;;;;;;0.40;0.40;;;21.50;77.20;;;;;;5132815;28;20114;-54
2021/09/13 08:13:47;;;;;;;1.42;0.68;;;21.50;77.90;;;;;;5131909;28;20403;-48
2021/09/13 08:16:13;;;;;;;0.30;0.30;;;21.50;77.20;;;;;;5130512;27;20039;-53
2021/09/13 08:18:39;;;;;;;0.93;0.40;;;21.50;77.30;;;;;;5135186;27;20469;-49
2021/09/13 08:21:05;;;;;;;0.60;0.50;;;21.50;77.20;;;;;;5134867;27;20047;-50
2021/09/13 08:23:33;;;;;;;0.35;0.30;;;21.50;77.20;;;;;;5135144;27;20084;-52
2021/09/13 08:26:00;;;;;;;0.35;0.35;;;21.50;77.20;;;;;;5134823;27;20039;-49
2021/09/13 08:28:27;;;;;;;0.40;0.40;;;21.50;77.30;;;;;;5135789;27;20125;-48
2021/09/13 08:30:52;;;;;;;0.32;0.32;;;21.50;77.20;;;;;;5134845;27;20510;-46
2021/09/13 08:33:18;;;;;;;0.40;0.40;;;21.50;77.20;;;;;;5135409;27;20082;-52
2021/09/13 08:35:45;;;;;;;0.75;0.52;;;21.50;77.20;;;;;;5117115;27;20043;-55
2021/09/13 08:38:11;;;;;;;0.30;0.30;;;21.50;77.20;;;;;;5116158;27;20062;-54
2021/09/13 08:40:36;;;;;;;0.57;0.40;;;21.50;77.30;;;;;;5133854;27;20039;-47
2021/09/13 08:43:03;;;;;;;0.55;0.52;;;21.50;77.30;;;;;;5135361;27;20402;-54
2021/09/13 08:48:17;;;;;;;0.47;0.30;;;21.50;77.20;;;;;;5116010;27;20490;-55
2021/09/13 08:53:15;;;;;;;0.40;0.40;;;21.50;77.30;;;;;;5134597;27;20104;-45
2021/09/13 08:55:41;;;;;;;0.30;0.30;;;21.50;77.20;;;;;;5116431;27;20503;-47
2021/09/13 08:58:07;;;;;;;0.93;0.40;;;21.50;77.20;;;;;;5134880;27;20498;-53
2021/09/13 09:00:34;;;;;;;0.43;0.43;;;21.50;77.20;;;;;;5135930;27;20387;-53
2021/09/13 09:03:04;;;;;;;0.30;0.30;;;21.50;77.30;;;;;;5136500;27;20039;-54
2021/09/13 09:05:29;;;;;;;0.40;0.40;;;21.50;77.20;;;;;;5135316;27;20123;-52
2021/09/13 09:07:55;;;;;;;1.45;0.50;;;21.50;77.30;;;;;;5135226;27;20114;-52
2021/09/13 09:10:24;;;;;;;0.77;0.50;;;21.50;77.20;;;;;;5136156;27;20043;-54
2021/09/13 09:12:57;;;;;;;0.70;0.35;;;21.50;77.30;;;;;;5135120;27;20521;-50
2021/09/13 09:15:23;;;;;;;0.60;0.40;;;21.50;77.30;;;;;;5135673;27;20051;-53
2021/09/13 09:17:56;;;;;;;0.60;0.35;;;21.50;77.30;;;;;;5135699;27;20070;-55
2021/09/13 09:20:22;;;;;;;0.22;0.22;;;21.50;77.30;;;;;;5117085;27;20047;-56
2021/09/13 09:23:00;;;;;;;0.73;0.47;;;21.50;77.30;;;;;;5134790;27;20059;-55
2021/09/13 09:25:29;;;;;;;0.57;0.40;;;21.50;77.30;;;;;;5135909;27;20043;-55
2021/09/13 09:28:04;;;;;;;0.63;0.40;;;21.50;77.90;;;;;;5135267;27;20038;-53
2021/09/13 09:30:35;;;;;;;;;;;21.50;77.30;;;;;;5136513;27;20049;-50
2021/09/13 09:33:06;;;;;;;0.30;0.30;;;21.50;77.80;;;;;;5135120;27;19920;-55
2021/09/13 09:35:41;;;;;;;0.30;0.30;;;21.50;77.40;;;;;;5135689;27;20039;-55
2021/09/13 09:38:07;;;;;;;0.40;0.35;;;21.50;77.40;;;;;;5135141;27;20086;-55
2021/09/13 09:40:33;;;;;;;0.50;0.38;;;21.50;77.40;;;;;;5116437;27;20043;-51
2021/09/13 09:43:03;;;;;;;0.63;0.40;;;21.50;77.30;;;;;;5135578;27;20039;-52
2021/09/13 09:45:29;;;;;;;0.40;0.40;;;21.50;77.40;;;;;;5135569;27;20043;-54
2021/09/13 09:48:09;;;;;;;0.30;0.30;;;21.50;77.40;;;;;;5135469;27;20394;-55
2021/09/13 09:50:35;;;;;;;0.47;0.40;;;21.50;77.40;;;;;;5135482;27;20062;-55
2021/09/13 09:53:18;;;;;;;0.30;0.30;;;21.50;77.40;;;;;;5135584;27;20479;-55
2021/09/13 09:55:49;;;;;;;0.30;0.30;;;21.50;77.40;;;;;;5134954;27;20039;-56
2021/09/13 09:58:14;;;;;;;0.38;0.38;;;21.50;77.40;;;;;;5134888;27;20039;-54
2021/09/13 10:00:43;;;;;;;0.30;0.30;;;21.50;77.40;;;;;;5135149;27;20108;-52
2021/09/13 10:03:09;;;;;;;0.40;0.40;;;21.50;77.40;;;;;;5135003;27;20119;-52
2021/09/13 10:05:35;;;;;;;0.30;0.30;;;21.50;77.40;;;;;;5134939;27;20085;-51
2021/09/13 10:08:01;;;;;;;0.32;0.30;;;21.50;77.30;;;;;;5134960;27;20043;-55
2021/09/13 10:10:29;;;;;;;0.57;0.50;;;21.50;77.40;;;;;;5134011;27;20039;-54
2021/09/13 10:13:00;;;;;;;0.30;0.30;;;21.50;77.40;;;;;;5115944;27;20051;-54
2021/09/13 10:15:26;;;;;;;0.50;0.30;;;21.50;77.40;;;;;;5134431;27;20060;-55
2021/09/13 10:17:52;;;;;;;0.30;0.30;;;21.50;77.30;;;;;;5134899;27;20038;-54
2021/09/13 10:20:18;;;;;;;0.30;0.30;;;21.50;77.30;;;;;;5134114;27;20039;-53
2021/09/13 10:22:49;;;;;;;0.40;0.30;;;21.50;77.40;;;;;;5134339;27;20167;-55
2021/09/13 10:25:15;;;;;;;0.43;0.35;;;21.50;77.30;;;;;;5134707;27;20092;-52
2021/09/13 10:27:46;;;;;;;0.45;0.43;;;21.50;77.40;;;;;;5133651;27;20135;-53
2021/09/13 10:30:25;;;;;;;0.22;0.22;;;21.50;77.30;;;;;;5134074;27;20180;-53
2021/09/13 10:32:52;;;;;;;0.32;0.32;;;21.50;77.40;;;;;;5115548;27;20047;-55
2021/09/13 10:35:40;;;;;;;0.40;0.32;;;21.50;77.40;;;;;;5116057;27;20085;-55
2021/09/13 10:38:05;;;;;;;0.40;0.40;;;21.50;77.40;;;;;;5134101;27;20054;-52
2021/09/13 10:40:39;;;;;;;0.30;0.30;;;21.50;77.40;;;;;;5133567;27;20035;-52
2021/09/13 10:43:20;;;;;;;0.43;0.40;;;21.50;77.40;;;;;;5133830;27;20035;-54
2021/09/13 10:45:46;;;;;;;0.50;0.30;;;21.50;77.40;;;;;;5134287;27;20099;-54
2021/09/13 10:48:20;;;;;;;0.40;0.40;;;21.50;77.40;;;;;;5133521;27;20039;-54
2021/09/13 10:50:54;;;;;;;0.30;0.30;;;21.50;77.40;;;;;;5133598;27;20078;-47
2021/09/13 10:53:20;;;;;;;0.30;0.30;;;21.50;77.40;;;;;;5133869;27;20187;-55
2021/09/13 10:55:51;;;;;;;0.30;0.30;;;21.50;77.40;;;;;;5115492;27;20089;-50
2021/09/13 10:58:19;;;;;;;0.25;0.20;;;21.50;77.40;;;;;;5133541;27;20047;-55
2021/09/13 11:00:45;;;;;;;0.30;0.30;;;21.40;77.40;;;;;;5134020;27;20071;-55
2021/09/13 11:03:29;;;;;;;0.63;0.40;;;21.50;77.40;;;;;;5133399;27;20094;-54
2021/09/13 11:06:23;;;;;;;0.32;0.30;;;21.50;77.40;;;;;;5133126;27;20183;-50
2021/09/13 11:08:59;;;;;;;0.70;0.40;;;21.50;77.40;;;;;;5133516;27;20043;-54
2021/09/13 11:11:29;;;;;;;0.20;0.20;;;21.50;77.40;;;;;;5133505;27;20043;-54
2021/09/13 11:14:01;;;;;;;0.43;0.40;;;21.50;77.50;;;;;;5133079;27;20103;-52
2021/09/13 11:16:29;;;;;;;0.25;0.25;;;21.50;77.40;;;;;;5133188;27;20074;-45
2021/09/13 11:18:56;;;;;;;0.20;0.20;;;21.50;77.40;;;;;;5133026;27;20043;-55
2021/09/13 11:21:33;;;;;;;1.05;0.30;;;21.60;77.50;;;;;;5133463;27;20051;-51
2021/09/13 11:24:11;;;;;;;0.30;0.30;;;21.50;77.50;;;;;;5132630;27;20046;-55
2021/09/13 11:26:49;;;;;;;0.28;0.28;;;21.50;77.50;;;;;;5132938;27;20095;-56
2021/09/13 11:29:22;;;;;;;0.40;0.20;;;21.50;77.50;;;;;;5132746;27;20047;-56
2021/09/13 11:31:49;;;;;;;0.20;0.20;;;21.50;77.50;;;;;;5133279;27;20114;-56
2021/09/13 11:34:14;;;;;;;0.30;0.30;;;21.50;77.50;;;;;;5132881;27;20075;-56
2021/09/13 11:37:00;;;;;;;0.25;0.25;;;21.50;77.50;;;;;;5132864;27;20081;-56
2021/09/13 11:39:37;;;;;;;0.22;0.22;;;21.50;77.60;;;;;;5129365;27;20119;-53
2021/09/13 11:42:12;;;;;;;0.22;0.22;;;21.50;77.50;;;;;;5103553;28;20041;-56
2021/09/13 11:44:39;;;;;;;;;;;21.50;77.50;;;;;;5118580;27;20118;-52
2021/09/13 11:47:06;;;;;;;0.30;0.30;;;21.50;77.90;;;;;;5131801;27;19976;-54
2021/09/13 11:49:36;;;;;;;0.30;0.30;;;21.50;77.60;;;;;;5132996;28;20442;-56
2021/09/13 11:52:11;;;;;;;0.20;0.20;;;21.50;77.60;;;;;;5112984;28;20468;-49
2021/09/13 11:54:54;;;;;;;0.22;0.20;;;21.50;77.50;;;;;;5112775;28;20549;-50
2021/09/13 11:57:22;;;;;;;0.38;0.38;;;21.50;77.50;;;;;;5113125;28;20050;-54
2021/09/13 11:59:53;;;;;;;0.28;0.28;;;21.50;77.60;;;;;;5131629;28;20043;-52
2021/09/13 12:02:19;;;;;;;0.47;0.35;;;21.50;77.60;;;;;;5131335;28;20047;-56
2021/09/13 12:04:45;;;;;;;0.20;0.20;;;21.50;77.50;;;;;;5133121;28;20042;-56
2021/09/13 12:07:12;;;;;;;0.20;0.20;;;21.50;77.60;;;;;;5131915;27;20091;-51
2021/09/13 12:09:41;;;;;;;0.30;0.30;;;21.50;77.50;;;;;;5132075;28;20042;-56
2021/09/13 12:12:11;;;;;;;0.45;0.30;;;21.50;78.20;;;;;;5133425;28;20043;-56
2021/09/13 12:14:39;;;;;;;0.30;0.30;;;21.50;77.50;;;;;;5133480;28;20367;-55
2021/09/13 12:17:05;;;;;;;0.30;0.30;;;21.50;77.50;;;;;;5131795;28;20100;-54
2021/09/13 12:19:31;;;;;;;0.60;0.30;;;21.50;77.50;;;;;;5133167;28;20048;-54
2021/09/13 12:22:04;;;;;;;0.32;0.30;;;21.50;77.60;;;;;;5132808;28;20050;-53
2021/09/13 12:24:30;;;;;;;0.30;0.30;;;21.50;77.60;;;;;;5132437;28;20487;-52
2021/09/13 12:26:57;;;;;;;0.40;0.22;;;21.50;77.60;;;;;;5132522;28;20169;-56
2021/09/13 12:29:23;;;;;;;0.28;0.20;;;21.50;77.60;;;;;;5132718;28;20172;-52
2021/09/13 12:31:48;;;;;;;0.30;0.30;;;21.50;77.60;;;;;;5113151;28;20126;-51
2021/09/13 12:34:14;;;;;;;0.40;0.20;;;21.50;77.60;;;;;;5132888;28;20463;-51
2021/09/13 12:36:40;;;;;;;0.20;0.20;;;21.50;77.60;;;;;;5132715;28;20077;-52
2021/09/13 12:39:09;;;;;;;0.20;0.20;;;21.50;77.60;;;;;;5131256;28;20114;-53
2021/09/13 12:41:36;;;;;;;0.25;0.22;;;21.50;77.60;;;;;;5132655;28;20049;-55
2021/09/13 12:44:34;;;;;;;0.30;0.30;;;21.50;77.70;;;;;;5132893;28;20039;-50
2021/09/13 12:47:00;;;;;;;0.70;0.30;;;21.60;77.90;;;;;;5045762;28;20049;-54
2021/09/13 12:49:31;;;;;;;0.30;0.22;;;21.50;77.70;;;;;;5048458;28;20477;-52
2021/09/13 12:52:01;;;;;;;0.30;0.30;;;21.50;77.60;;;;;;5048650;28;20078;-53
2021/09/13 12:54:30;;;;;;;0.40;0.30;;;21.60;77.70;;;;;;5047763;28;20057;-56
2021/09/13 12:56:55;;;;;;;0.75;0.40;;;21.60;77.70;;;;;;5048665;28;20148;-52
2021/09/13 12:59:21;;;;;;;0.30;0.30;;;21.60;77.70;;;;;;5049154;28;20123;-50
2021/09/13 13:01:49;;;;;;;0.30;0.30;;;21.60;77.70;;;;;;5048301;28;20612;-54